createdAt,value
2023-05-08T00:02:57.196Z,97562.22
2023-05-08T00:05:58.760Z,97556.41
2023-05-08T00:09:00.285Z,97559.06
2023-05-08T00:12:01.804Z,97557.06
2023-05-08T00:15:04.824Z,97560.38
2023-05-08T00:18:06.300Z,97562.88
2023-05-08T00:21:07.912Z,97567.16
2023-05-08T00:24:09.412Z,97566.13
2023-05-08T00:27:11.038Z,97558.66
2023-05-08T00:30:14.356Z,97571.56
2023-05-08T00:33:16.436Z,97565.72
2023-05-08T00:36:17.986Z,97570.09
2023-05-08T00:39:19.463Z,97572.44
2023-05-08T00:42:21.353Z,97569.16
2023-05-08T00:45:22.872Z,97571.81
2023-05-08T00:48:25.439Z,97569.81
2023-05-08T00:51:27.866Z,97558.66
2023-05-08T00:54:29.888Z,97566.72
2023-05-08T00:57:35.459Z,97563.41
2023-05-08T01:00:39.077Z,97562.28
2023-05-08T01:03:40.805Z,97576.63
2023-05-08T01:06:42.495Z,97575.00
2023-05-08T01:09:43.977Z,97584.31
2023-05-08T01:13:16.485Z,97580.78
2023-05-08T01:16:46.613Z,97586.88
2023-05-08T01:20:17.850Z,97585.69
2023-05-08T01:23:53.778Z,97591.06
2023-05-08T01:27:13.417Z,97593.00
2023-05-08T01:30:51.972Z,97590.66
2023-05-08T01:34:06.225Z,97588.41
2023-05-08T01:37:12.497Z,97593.06
2023-05-08T01:40:40.746Z,97590.59
2023-05-08T01:43:55.478Z,97586.22
2023-05-08T01:46:58.047Z,97590.19
2023-05-08T01:50:18.386Z,97598.38
2023-05-08T01:53:30.260Z,97596.34
2023-05-08T01:56:32.847Z,97594.94
2023-05-08T01:59:37.012Z,97594.34
2023-05-08T02:02:38.676Z,97591.00
2023-05-08T02:05:43.225Z,97594.97
2023-05-08T02:08:46.267Z,97605.72
2023-05-08T02:11:49.847Z,97601.19
2023-05-08T02:14:55.683Z,97599.63
2023-05-08T02:17:59.163Z,97592.16
2023-05-08T02:21:04.043Z,97599.78
2023-05-08T02:24:06.268Z,97602.94
2023-05-08T02:27:10.387Z,97604.19
2023-05-08T02:30:16.717Z,97603.34
2023-05-08T02:33:19.182Z,97608.22
2023-05-08T02:36:22.952Z,97602.44
2023-05-08T02:39:30.235Z,97606.72
2023-05-08T02:42:31.964Z,97603.09
2023-05-08T02:45:43.625Z,97606.34
2023-05-08T02:48:57.228Z,97600.16
2023-05-08T02:52:13.843Z,97593.66
2023-05-08T02:55:30.834Z,97601.81
2023-05-08T02:58:55.316Z,97596.69
2023-05-08T03:02:12.252Z,97594.44
2023-05-08T03:05:20.546Z,97590.50
2023-05-08T03:08:30.677Z,97591.81
2023-05-08T03:11:39.070Z,97604.31
2023-05-08T03:14:45.906Z,97592.50
2023-05-08T03:17:52.742Z,97591.41
2023-05-08T03:20:57.968Z,97589.56
2023-05-08T03:24:03.140Z,97593.81
2023-05-08T03:27:06.155Z,97590.94
2023-05-08T03:30:09.697Z,97599.00
2023-05-08T03:33:14.289Z,97602.63
2023-05-08T03:36:16.056Z,97603.47
2023-05-08T03:39:17.662Z,97597.41
2023-05-08T03:42:22.289Z,97591.75
2023-05-08T03:45:24.964Z,97595.59
2023-05-08T03:48:27.684Z,97600.81
2023-05-08T03:51:29.488Z,97602.41
2023-05-08T03:54:31.842Z,97601.53
2023-05-08T03:57:42.872Z,97604.09
2023-05-08T04:01:32.783Z,97603.25
2023-05-08T04:04:39.990Z,97604.78
2023-05-08T04:07:50.794Z,97608.28
2023-05-08T04:11:06.648Z,97606.75
2023-05-08T04:14:13.400Z,97613.78
2023-05-08T04:17:22.552Z,97601.13
2023-05-08T04:20:27.326Z,97620.28
2023-05-08T04:23:29.940Z,97619.28
2023-05-08T04:26:32.732Z,97623.78
2023-05-08T04:29:35.576Z,97627.59
2023-05-08T04:32:41.734Z,97625.75
2023-05-08T04:35:46.149Z,97632.47
2023-05-08T04:38:48.098Z,97631.94
2023-05-08T04:41:51.356Z,97631.06
2023-05-08T04:44:54.808Z,97635.63
2023-05-08T04:47:56.564Z,97639.13
2023-05-08T04:50:58.355Z,97649.38
2023-05-08T04:54:00.436Z,97647.84
2023-05-08T04:57:02.823Z,97641.09
2023-05-08T05:00:06.126Z,97642.78
2023-05-08T05:03:14.276Z,97637.72
2023-05-08T05:06:16.023Z,97644.47
2023-05-08T05:09:17.730Z,97648.41
2023-05-08T05:12:19.260Z,97649.06
2023-05-08T05:15:20.836Z,97654.72
2023-05-08T05:18:22.758Z,97649.06
2023-05-08T05:21:26.005Z,97652.72
2023-05-08T05:24:27.735Z,97659.09
2023-05-08T05:27:29.249Z,97652.31
2023-05-08T05:30:30.848Z,97659.53
2023-05-08T05:33:32.769Z,97653.06
2023-05-08T05:36:34.639Z,97658.81
2023-05-08T05:39:37.731Z,97669.09
2023-05-08T05:42:39.730Z,97665.28
2023-05-08T05:45:42.116Z,97661.50
2023-05-08T05:48:43.625Z,97661.59
2023-05-08T05:51:45.576Z,97663.44
2023-05-08T05:54:47.258Z,97664.13
2023-05-08T05:57:48.900Z,97667.94
2023-05-08T06:00:51.354Z,97666.84
2023-05-08T06:03:53.991Z,97654.16
2023-05-08T06:06:55.540Z,97666.59
2023-05-08T06:09:57.098Z,97661.66
2023-05-08T06:12:59.181Z,97669.66
2023-05-08T06:16:01.311Z,97672.47
2023-05-08T06:19:02.964Z,97666.53
2023-05-08T06:22:05.289Z,97669.75
2023-05-08T06:25:08.353Z,97674.69
2023-05-08T06:28:09.818Z,97680.34
2023-05-08T06:31:11.426Z,97677.09
2023-05-08T06:34:13.193Z,97675.81
2023-05-08T06:37:14.848Z,97682.56
2023-05-08T06:40:16.497Z,97687.47
2023-05-08T06:43:18.257Z,97681.13
2023-05-08T06:46:19.893Z,97678.47
2023-05-08T06:49:22.915Z,97678.50
2023-05-08T06:52:25.672Z,97684.69
2023-05-08T06:55:27.307Z,97681.97
2023-05-08T06:58:30.492Z,97683.69
2023-05-08T07:01:32.319Z,97690.31
2023-05-08T07:04:33.947Z,97686.75
2023-05-08T07:07:35.826Z,97689.97
2023-05-08T07:10:37.275Z,97681.19
2023-05-08T07:13:38.805Z,97687.50
2023-05-08T07:16:40.741Z,97683.50
2023-05-08T07:19:42.386Z,97685.19
2023-05-08T07:22:43.917Z,97685.59
2023-05-08T07:25:46.057Z,97685.88
2023-05-08T07:28:47.969Z,97689.31
2023-05-08T07:31:49.624Z,97684.34
2023-05-08T07:34:51.172Z,97685.28
2023-05-08T07:37:52.731Z,97690.31
2023-05-08T07:40:58.248Z,97694.34
2023-05-08T07:43:59.776Z,97697.84
2023-05-08T07:47:01.288Z,97694.75
2023-05-08T07:50:03.411Z,97696.44
2023-05-08T07:53:04.894Z,97699.84
2023-05-08T07:56:06.545Z,97702.78
2023-05-08T07:59:07.957Z,97709.13
2023-05-08T08:02:09.494Z,97707.78
2023-05-08T08:05:11.821Z,97724.81
2023-05-08T08:08:14.103Z,97717.53
2023-05-08T08:11:15.769Z,97720.78
2023-05-08T08:14:17.351Z,97721.88
2023-05-08T08:17:18.941Z,97727.66
2023-05-08T08:20:23.348Z,97722.19
2023-05-08T08:23:25.280Z,97724.81
2023-05-08T08:26:26.880Z,97716.50
2023-05-08T08:29:28.513Z,97729.31
2023-05-08T08:32:30.834Z,97723.25
2023-05-08T08:35:33.229Z,97728.72
2023-05-08T08:38:34.662Z,97726.22
2023-05-08T08:41:36.199Z,97722.28
2023-05-08T08:44:39.292Z,97723.38
2023-05-08T08:47:44.830Z,97728.09
2023-05-08T08:50:50.942Z,97724.72
2023-05-08T08:54:03.106Z,97725.59
2023-05-08T08:57:09.247Z,97721.97
2023-05-08T09:00:12.107Z,97724.22
2023-05-08T09:03:14.517Z,97726.00
2023-05-08T09:06:17.122Z,97722.47
2023-05-08T09:09:18.688Z,97725.75
2023-05-08T09:12:20.162Z,97721.41
2023-05-08T09:15:22.080Z,97714.78
2023-05-08T09:18:23.623Z,97723.16
2023-05-08T09:21:25.542Z,97714.75
2023-05-08T09:24:55.941Z,97715.19
2023-05-08T09:28:15.582Z,97721.16
2023-05-08T09:31:17.290Z,97719.13
2023-05-08T09:34:24.637Z,97706.31
2023-05-08T09:37:27.320Z,97717.34
2023-05-08T09:40:28.860Z,97714.56
2023-05-08T09:43:30.460Z,97719.72
2023-05-08T09:46:34.029Z,97724.13
2023-05-08T09:49:35.495Z,97724.91
2023-05-08T09:52:38.786Z,97729.09
2023-05-08T09:55:47.646Z,97720.91
2023-05-08T09:58:49.115Z,97720.97
2023-05-08T10:01:50.998Z,97718.38
2023-05-08T10:04:52.859Z,97723.19
2023-05-08T10:07:54.510Z,97730.41
2023-05-08T10:11:13.384Z,97724.75
2023-05-08T10:14:14.835Z,97729.38
2023-05-08T10:17:25.193Z,97737.97
2023-05-08T10:20:30.144Z,97733.31
2023-05-08T10:23:34.386Z,97736.78
2023-05-08T10:26:53.642Z,97733.47
2023-05-08T10:30:04.751Z,97728.88
2023-05-08T10:33:10.371Z,97728.56
2023-05-08T10:36:13.270Z,97720.84
2023-05-08T10:39:16.962Z,97722.97
2023-05-08T10:42:19.080Z,97732.69
2023-05-08T10:45:20.698Z,97731.88
2023-05-08T10:48:32.005Z,97738.53
2023-05-08T10:51:55.240Z,97722.75
2023-05-08T10:55:04.719Z,97719.41
2023-05-08T10:58:13.208Z,97715.06
2023-05-08T11:01:16.254Z,97714.25
2023-05-08T11:04:28.550Z,97722.06
2023-05-08T11:07:50.610Z,97708.25
2023-05-08T11:11:06.198Z,97722.66
2023-05-08T11:14:07.630Z,97718.56
2023-05-08T11:17:10.109Z,97723.50
2023-05-08T11:20:11.950Z,97716.03
2023-05-08T11:23:33.134Z,97727.63
2023-05-08T11:26:40.641Z,97714.59
2023-05-08T11:29:42.574Z,97711.75
2023-05-08T11:33:05.337Z,97714.69
2023-05-08T11:36:07.162Z,97712.78
2023-05-08T11:39:15.401Z,97708.53
2023-05-08T11:42:26.733Z,97707.41
2023-05-08T11:45:28.274Z,97703.06
2023-05-08T11:48:30.495Z,97706.31
2023-05-08T11:51:33.401Z,97701.34
2023-05-08T11:54:34.883Z,97701.22
2023-05-08T11:57:36.655Z,97701.91
2023-05-08T12:00:46.116Z,97702.50
2023-05-08T12:03:47.863Z,97696.34
2023-05-08T12:06:51.274Z,97697.81
2023-05-08T12:09:53.781Z,97704.88
2023-05-08T12:12:55.247Z,97697.19
2023-05-08T12:15:59.480Z,97706.09
2023-05-08T12:19:01.068Z,97703.19
2023-05-08T12:22:02.580Z,97703.09
2023-05-08T12:25:06.275Z,97700.41
2023-05-08T12:28:08.708Z,97700.50
2023-05-08T12:31:10.404Z,97697.09
2023-05-08T12:34:12.523Z,97698.88
2023-05-08T12:37:24.009Z,97696.56
2023-05-08T12:40:31.354Z,97702.91
2023-05-08T12:43:35.418Z,97705.22
2023-05-08T12:46:37.332Z,97695.16
2023-05-08T12:49:38.841Z,97701.38
2023-05-08T12:52:40.811Z,97696.28
2023-05-08T12:55:52.769Z,97689.53
2023-05-08T12:58:59.538Z,97697.84
2023-05-08T13:02:01.172Z,97689.53
2023-05-08T13:05:04.792Z,97702.00
2023-05-08T13:08:09.806Z,97703.19
2023-05-08T13:11:12.499Z,97698.84
2023-05-08T13:14:14.032Z,97686.38
2023-05-08T13:17:18.900Z,97694.72
2023-05-08T13:20:20.505Z,97688.72
2023-05-08T13:23:22.561Z,97688.25
2023-05-08T13:26:25.510Z,97686.56
2023-05-08T13:29:27.092Z,97683.03
2023-05-08T13:32:28.651Z,97684.38
2023-05-08T13:35:30.506Z,97681.53
2023-05-08T13:38:32.086Z,97675.97
2023-05-08T13:41:33.553Z,97670.09
2023-05-08T13:44:35.045Z,97666.88
2023-05-08T13:47:37.132Z,97663.19
2023-05-08T13:50:38.648Z,97658.31
2023-05-08T13:53:40.206Z,97663.19
2023-05-08T13:56:41.805Z,97654.91
2023-05-08T13:59:43.378Z,97654.25
2023-05-08T14:02:45.306Z,97654.75
2023-05-08T14:05:47.283Z,97655.78
2023-05-08T14:08:51.407Z,97659.47
2023-05-08T14:11:53.111Z,97648.69
2023-05-08T14:14:54.573Z,97648.38
2023-05-08T14:17:56.024Z,97648.03
2023-05-08T14:20:57.851Z,97645.84
2023-05-08T14:23:59.297Z,97655.25
2023-05-08T14:27:05.479Z,97647.69
2023-05-08T14:30:07.828Z,97649.88
2023-05-08T14:33:09.329Z,97639.94
2023-05-08T14:36:10.863Z,97640.13
2023-05-08T14:39:12.340Z,97643.81
2023-05-08T14:42:22.909Z,97642.28
2023-05-08T14:45:24.993Z,97644.50
2023-05-08T14:48:27.490Z,97649.88
2023-05-08T14:51:28.942Z,97649.84
2023-05-08T14:54:30.655Z,97649.88
2023-05-08T14:57:32.318Z,97645.84
2023-05-08T15:00:33.775Z,97652.72
2023-05-08T15:03:35.440Z,97642.63
2023-05-08T15:06:40.040Z,97647.50
2023-05-08T15:09:41.486Z,97647.69
2023-05-08T15:12:42.928Z,97646.47
2023-05-08T15:15:44.344Z,97642.97
2023-05-08T15:18:45.842Z,97640.59
2023-05-08T15:21:47.293Z,97649.03
2023-05-08T15:24:48.684Z,97637.25
2023-05-08T15:27:52.564Z,97639.56
2023-05-08T15:30:54.076Z,97641.34
2023-05-08T15:33:55.627Z,97654.69
2023-05-08T15:36:57.054Z,97642.41
2023-05-08T15:39:58.647Z,97651.31
2023-05-08T15:43:00.670Z,97644.13
2023-05-08T15:46:02.237Z,97648.00
2023-05-08T15:49:04.442Z,97639.22
2023-05-08T15:52:05.883Z,97640.72
2023-05-08T15:55:07.839Z,97653.16
2023-05-08T15:58:09.283Z,97644.88
2023-05-08T16:01:10.852Z,97649.06
2023-05-08T16:04:12.864Z,97653.63
2023-05-08T16:07:14.282Z,97653.78
2023-05-08T16:10:15.898Z,97659.09
2023-05-08T16:13:17.417Z,97654.53
2023-05-08T16:16:18.934Z,97656.56
2023-05-08T16:19:20.354Z,97657.22
2023-05-08T16:22:23.129Z,97668.06
2023-05-08T16:25:26.014Z,97664.53
2023-05-08T16:28:27.497Z,97663.88
2023-05-08T16:31:29.022Z,97660.28
2023-05-08T16:34:30.577Z,97663.03
2023-05-08T16:37:32.018Z,97670.94
2023-05-08T16:40:33.494Z,97660.50
2023-05-08T16:43:34.914Z,97672.63
2023-05-08T16:46:36.412Z,97666.03
2023-05-08T16:49:37.833Z,97662.13
2023-05-08T16:52:39.261Z,97667.47
2023-05-08T16:55:41.178Z,97667.47
2023-05-08T16:58:43.235Z,97671.84
2023-05-08T17:01:44.884Z,97675.84
2023-05-08T17:04:49.764Z,97676.81
2023-05-08T17:07:51.454Z,97677.81
2023-05-08T17:10:54.083Z,97678.16
2023-05-08T17:13:55.532Z,97683.78
2023-05-08T17:16:57.019Z,97687.44
2023-05-08T17:19:58.655Z,97691.09
2023-05-08T17:23:00.800Z,97689.66
2023-05-08T17:26:02.255Z,97690.34
2023-05-08T17:29:03.864Z,97686.34
2023-05-08T17:32:05.556Z,97698.56
2023-05-08T17:35:07.494Z,97689.97
2023-05-08T17:38:09.185Z,97703.56
2023-05-08T17:41:10.667Z,97692.06
2023-05-08T17:44:12.107Z,97701.50
2023-05-08T17:47:13.605Z,97697.28
2023-05-08T17:50:15.187Z,97698.13
2023-05-08T17:53:16.828Z,97698.13
2023-05-08T17:56:20.430Z,97705.69
2023-05-08T17:59:21.966Z,97706.03
2023-05-08T18:02:23.513Z,97706.63
2023-05-08T18:05:25.240Z,97706.91
2023-05-08T18:08:26.731Z,97705.03
2023-05-08T18:11:28.218Z,97710.00
2023-05-08T18:14:31.669Z,97702.28
2023-05-08T18:17:33.311Z,97698.75
2023-05-08T18:20:34.999Z,97706.44
2023-05-08T18:23:36.774Z,97709.19
2023-05-08T18:26:38.291Z,97706.31
2023-05-08T18:29:39.904Z,97707.81
2023-05-08T18:32:44.115Z,97712.63
2023-05-08T18:35:46.053Z,97710.41
2023-05-08T18:38:47.562Z,97714.69
2023-05-08T18:41:50.119Z,97718.28
2023-05-08T18:44:51.686Z,97717.28
2023-05-08T18:47:56.422Z,97717.31
2023-05-08T18:50:58.636Z,97713.44
2023-05-08T18:54:00.669Z,97711.84
2023-05-08T18:57:02.552Z,97707.63
2023-05-08T19:00:05.235Z,97719.97
2023-05-08T19:03:06.979Z,97718.25
2023-05-08T19:06:15.021Z,97726.47
2023-05-08T19:09:18.695Z,97721.41
2023-05-08T19:12:20.192Z,97719.84
2023-05-08T19:15:21.843Z,97722.22
2023-05-08T19:18:24.301Z,97723.81
2023-05-08T19:21:26.045Z,97716.19
2023-05-08T19:24:29.968Z,97720.72
2023-05-08T19:27:32.159Z,97719.56
2023-05-08T19:30:39.263Z,97718.28
2023-05-08T19:33:41.001Z,97720.41
2023-05-08T19:36:42.658Z,97720.88
2023-05-08T19:44:53.352Z,97717.97
2023-05-08T19:47:58.271Z,97726.66
2023-05-08T19:51:10.916Z,97720.88
2023-05-08T19:54:13.301Z,97725.38
2023-05-08T19:57:17.037Z,97726.81
2023-05-08T20:00:28.809Z,97722.34
2023-05-08T20:03:30.894Z,97718.63
2023-05-08T20:06:32.939Z,97723.97
2023-05-08T20:09:34.911Z,97728.91
2023-05-08T20:12:50.214Z,97725.00
2023-05-08T20:16:02.490Z,97722.91
2023-05-08T20:19:04.617Z,97719.13
2023-05-08T20:22:17.470Z,97723.34
2023-05-08T20:25:22.538Z,97720.38
2023-05-08T20:28:30.107Z,97723.22
2023-05-08T20:31:34.956Z,97721.50
2023-05-08T20:34:39.331Z,97718.28
2023-05-08T20:37:50.506Z,97719.06
2023-05-08T20:40:55.791Z,97723.16
2023-05-08T20:44:02.682Z,97726.56
2023-05-08T20:47:05.423Z,97723.06
2023-05-08T20:50:08.650Z,97724.91
2023-05-08T20:53:16.994Z,97713.88
2023-05-08T20:56:20.095Z,97711.09
2023-05-08T20:59:24.361Z,97713.47
2023-05-08T21:02:26.888Z,97716.25
2023-05-08T21:05:28.959Z,97712.34
2023-05-08T21:08:31.304Z,97706.84
2023-05-08T21:11:33.787Z,97698.94
2023-05-08T21:14:36.838Z,97698.94
2023-05-08T21:17:38.743Z,97694.44
2023-05-08T21:20:40.679Z,97698.78
2023-05-08T21:23:42.657Z,97692.63
2023-05-08T21:26:44.236Z,97690.19
2023-05-08T21:29:45.830Z,97688.81
2023-05-08T21:32:47.419Z,97692.19
2023-05-08T21:35:49.033Z,97690.78
2023-05-08T21:38:51.953Z,97687.53
2023-05-08T21:41:53.432Z,97685.84
2023-05-08T21:44:55.230Z,97685.16
2023-05-08T21:47:57.463Z,97681.09
2023-05-08T21:50:59.407Z,97685.03
2023-05-08T21:54:01.366Z,97690.22
2023-05-08T21:57:02.911Z,97691.50
2023-05-08T22:00:06.951Z,97687.38
2023-05-08T22:03:08.689Z,97695.19
2023-05-08T22:06:10.229Z,97695.91
2023-05-08T22:09:11.954Z,97699.75
2023-05-08T22:12:13.497Z,97695.38
2023-05-08T22:15:28.531Z,97694.28
2023-05-08T22:18:31.586Z,97686.41
2023-05-08T22:21:33.058Z,97696.56
2023-05-08T22:24:34.508Z,97687.72
2023-05-08T22:27:36.017Z,97686.56
2023-05-08T22:30:37.558Z,97683.88
2023-05-08T22:33:39.136Z,97671.78
2023-05-08T22:36:40.653Z,97675.16
2023-05-08T22:39:42.133Z,97679.66
2023-05-08T22:42:44.531Z,97683.50
2023-05-08T22:45:46.076Z,97669.66
2023-05-08T22:48:47.812Z,97667.41
2023-05-08T22:51:50.968Z,97664.03
2023-05-08T22:54:52.687Z,97667.13
2023-05-08T22:57:54.162Z,97659.66
2023-05-08T23:00:55.863Z,97654.88
2023-05-08T23:03:57.535Z,97655.03
2023-05-08T23:06:59.062Z,97644.75
2023-05-08T23:10:00.642Z,97635.75
2023-05-08T23:13:02.208Z,97631.81
2023-05-08T23:16:03.980Z,97630.81
2023-05-08T23:19:05.489Z,97624.19
2023-05-08T23:22:06.944Z,97620.84
2023-05-08T23:25:12.274Z,97618.84
2023-05-08T23:28:14.177Z,97607.44
2023-05-08T23:31:16.915Z,97608.84
2023-05-08T23:34:18.417Z,97606.75
2023-05-08T23:37:19.918Z,97610.69
2023-05-08T23:40:21.436Z,97607.59
2023-05-08T23:43:22.993Z,97599.31
2023-05-08T23:46:24.826Z,97604.66
2023-05-08T23:49:26.435Z,97600.41
2023-05-08T23:52:27.972Z,97594.66
2023-05-08T23:55:29.951Z,97593.63
2023-05-08T23:58:31.520Z,97597.56
